sensor_id;sensor_type;location;lat;lon;timestamp;temperature;humidity
8422;DHT22;4248;48.196;10.924;2022-09-09T00:02:17;12.50;58.90
8422;DHT22;4248;48.196;10.924;2022-09-09T00:04:58;12.50;58.10
8422;DHT22;4248;48.196;10.924;2022-09-09T00:07:46;12.50;59.10
8422;DHT22;4248;48.196;10.924;2022-09-09T00:13:08;12.40;59.00
8422;DHT22;4248;48.196;10.924;2022-09-09T00:21:06;12.40;58.90
8422;DHT22;4248;48.196;10.924;2022-09-09T00:23:35;12.40;57.90
8422;DHT22;4248;48.196;10.924;2022-09-09T00:26:13;12.40;58.90
8422;DHT22;4248;48.196;10.924;2022-09-09T00:31:32;12.50;58.80
8422;DHT22;4248;48.196;10.924;2022-09-09T00:34:21;12.60;57.70
8422;DHT22;4248;48.196;10.924;2022-09-09T00:36:52;12.60;58.80
8422;DHT22;4248;48.196;10.924;2022-09-09T00:42:12;12.70;58.50
8422;DHT22;4248;48.196;10.924;2022-09-09T00:44:56;12.80;57.40
8422;DHT22;4248;48.196;10.924;2022-09-09T00:47:51;12.80;58.30
8422;DHT22;4248;48.196;10.924;2022-09-09T00:56:14;12.90;58.20
8422;DHT22;4248;48.196;10.924;2022-09-09T00:59:34;13.00;58.00
8422;DHT22;4248;48.196;10.924;2022-09-09T01:01:40;13.10;57.90
8422;DHT22;4248;48.196;10.924;2022-09-09T01:04:25;13.10;56.80
8422;DHT22;4248;48.196;10.924;2022-09-09T01:07:16;13.10;57.80
8422;DHT22;4248;48.196;10.924;2022-09-09T01:09:51;13.10;57.70
8422;DHT22;4248;48.196;10.924;2022-09-09T01:15:13;13.20;56.70
8422;DHT22;4248;48.196;10.924;2022-09-09T01:28:47;13.20;58.00
8422;DHT22;4248;48.196;10.924;2022-09-09T01:31:20;13.20;58.10
8422;DHT22;4248;48.196;10.924;2022-09-09T01:33:48;13.10;57.30
8422;DHT22;4248;48.196;10.924;2022-09-09T01:36:26;13.10;58.30
8422;DHT22;4248;48.196;10.924;2022-09-09T01:38:54;13.10;58.50
8422;DHT22;4248;48.196;10.924;2022-09-09T01:41:22;13.10;58.60
8422;DHT22;4248;48.196;10.924;2022-09-09T01:43:50;13.00;57.80
8422;DHT22;4248;48.196;10.924;2022-09-09T01:46:19;12.90;58.80
8422;DHT22;4248;48.196;10.924;2022-09-09T01:48:50;13.00;59.00
8422;DHT22;4248;48.196;10.924;2022-09-09T01:51:18;12.90;59.10
8422;DHT22;4248;48.196;10.924;2022-09-09T01:53:47;12.90;58.40
8422;DHT22;4248;48.196;10.924;2022-09-09T02:02:32;12.90;59.60
8422;DHT22;4248;48.196;10.924;2022-09-09T02:07:55;12.90;59.40
8422;DHT22;4248;48.196;10.924;2022-09-09T02:13:07;13.00;59.30
8422;DHT22;4248;48.196;10.924;2022-09-09T02:16:00;13.10;58.30
8422;DHT22;4248;48.196;10.924;2022-09-09T02:18:52;13.10;59.40
8422;DHT22;4248;48.196;10.924;2022-09-09T02:21:23;13.20;59.40
8422;DHT22;4248;48.196;10.924;2022-09-09T02:23:51;13.10;58.50
8422;DHT22;4248;48.196;10.924;2022-09-09T02:26:20;13.10;59.60
8422;DHT22;4248;48.196;10.924;2022-09-09T02:28:51;13.10;59.70
8422;DHT22;4248;48.196;10.924;2022-09-09T02:31:22;13.10;59.90
8422;DHT22;4248;48.196;10.924;2022-09-09T02:33:56;13.00;59.20
8422;DHT22;4248;48.196;10.924;2022-09-09T02:36:26;13.00;60.10
8422;DHT22;4248;48.196;10.924;2022-09-09T02:38:57;13.10;60.00
8422;DHT22;4248;48.196;10.924;2022-09-09T02:41:28;13.10;60.00
8422;DHT22;4248;48.196;10.924;2022-09-09T02:43:57;13.30;59.10
8422;DHT22;4248;48.196;10.924;2022-09-09T02:55:24;13.40;59.10
8422;DHT22;4248;48.196;10.924;2022-09-09T02:57:58;13.50;60.00
8422;DHT22;4248;48.196;10.924;2022-09-09T03:00:26;13.60;59.70
8422;DHT22;4248;48.196;10.924;2022-09-09T03:02:55;13.70;59.40
8422;DHT22;4248;48.196;10.924;2022-09-09T03:05:22;13.70;58.30
8422;DHT22;4248;48.196;10.924;2022-09-09T03:07:50;13.70;60.60
8422;DHT22;4248;48.196;10.924;2022-09-09T03:10:17;13.70;59.80
8422;DHT22;4248;48.196;10.924;2022-09-09T03:12:45;13.70;59.90
8422;DHT22;4248;48.196;10.924;2022-09-09T03:15:13;13.70;59.20
8422;DHT22;4248;48.196;10.924;2022-09-09T03:17:41;13.70;60.30
8422;DHT22;4248;48.196;10.924;2022-09-09T03:20:09;13.60;60.30
8422;DHT22;4248;48.196;10.924;2022-09-09T03:22:37;13.60;59.40
8422;DHT22;4248;48.196;10.924;2022-09-09T03:25:05;13.50;59.40
8422;DHT22;4248;48.196;10.924;2022-09-09T03:27:33;13.50;60.50
8422;DHT22;4248;48.196;10.924;2022-09-09T03:30:02;13.50;60.40
8422;DHT22;4248;48.196;10.924;2022-09-09T03:32:30;13.50;60.50
8422;DHT22;4248;48.196;10.924;2022-09-09T03:34:58;13.50;59.80
8422;DHT22;4248;48.196;10.924;2022-09-09T03:37:25;13.40;60.60
8422;DHT22;4248;48.196;10.924;2022-09-09T03:39:53;13.40;60.70
8422;DHT22;4248;48.196;10.924;2022-09-09T03:42:24;13.40;60.70
8422;DHT22;4248;48.196;10.924;2022-09-09T03:44:52;13.30;60.00
8422;DHT22;4248;48.196;10.924;2022-09-09T03:47:20;13.30;60.90
8422;DHT22;4248;48.196;10.924;2022-09-09T03:49:50;13.30;60.90
8422;DHT22;4248;48.196;10.924;2022-09-09T03:52:18;13.20;60.80
8422;DHT22;4248;48.196;10.924;2022-09-09T03:54:46;13.20;60.00
8422;DHT22;4248;48.196;10.924;2022-09-09T03:57:13;13.20;61.00
8422;DHT22;4248;48.196;10.924;2022-09-09T03:59:43;13.20;61.00
8422;DHT22;4248;48.196;10.924;2022-09-09T04:02:11;13.20;61.20
8422;DHT22;4248;48.196;10.924;2022-09-09T04:04:38;13.20;60.20
8422;DHT22;4248;48.196;10.924;2022-09-09T04:07:06;13.20;61.00
8422;DHT22;4248;48.196;10.924;2022-09-09T04:09:33;13.30;60.70
8422;DHT22;4248;48.196;10.924;2022-09-09T04:12:01;13.40;60.50
8422;DHT22;4248;48.196;10.924;2022-09-09T04:14:29;13.60;59.10
8422;DHT22;4248;48.196;10.924;2022-09-09T04:16:56;13.70;59.80
8422;DHT22;4248;48.196;10.924;2022-09-09T04:19:25;13.80;59.50
8422;DHT22;4248;48.196;10.924;2022-09-09T04:21:53;13.90;59.30
8422;DHT22;4248;48.196;10.924;2022-09-09T04:24:20;14.00;57.90
8422;DHT22;4248;48.196;10.924;2022-09-09T04:26:48;14.00;58.80
8422;DHT22;4248;48.196;10.924;2022-09-09T04:29:15;14.10;58.80
8422;DHT22;4248;48.196;10.924;2022-09-09T04:31:42;14.10;58.80
8422;DHT22;4248;48.196;10.924;2022-09-09T04:34:10;14.00;58.10
8422;DHT22;4248;48.196;10.924;2022-09-09T04:36:37;14.10;59.20
8422;DHT22;4248;48.196;10.924;2022-09-09T04:39:06;14.20;59.00
8422;DHT22;4248;48.196;10.924;2022-09-09T04:41:34;14.30;58.80
8422;DHT22;4248;48.196;10.924;2022-09-09T04:44:02;14.40;57.60
8422;DHT22;4248;48.196;10.924;2022-09-09T04:46:29;14.40;58.50
8422;DHT22;4248;48.196;10.924;2022-09-09T04:48:57;14.50;58.40
8422;DHT22;4248;48.196;10.924;2022-09-09T04:51:24;14.60;58.30
8422;DHT22;4248;48.196;10.924;2022-09-09T04:53:51;14.70;57.10
8422;DHT22;4248;48.196;10.924;2022-09-09T04:56:20;14.70;58.00
8422;DHT22;4248;48.196;10.924;2022-09-09T04:58:47;14.80;58.00
8422;DHT22;4248;48.196;10.924;2022-09-09T05:01:20;14.90;57.70
8422;DHT22;4248;48.196;10.924;2022-09-09T05:03:48;14.90;56.80
8422;DHT22;4248;48.196;10.924;2022-09-09T05:06:18;14.90;57.80
8422;DHT22;4248;48.196;10.924;2022-09-09T05:08:45;14.90;57.90
8422;DHT22;4248;48.196;10.924;2022-09-09T05:11:18;15.00;58.00
8422;DHT22;4248;48.196;10.924;2022-09-09T05:13:46;15.00;57.20
8422;DHT22;4248;48.196;10.924;2022-09-09T05:16:14;15.00;58.30
8422;DHT22;4248;48.196;10.924;2022-09-09T05:18:42;15.10;58.30
8422;DHT22;4248;48.196;10.924;2022-09-09T05:21:11;15.10;58.00
8422;DHT22;4248;48.196;10.924;2022-09-09T05:23:39;15.20;57.10
8422;DHT22;4248;48.196;10.924;2022-09-09T05:26:07;15.20;58.20
8422;DHT22;4248;48.196;10.924;2022-09-09T05:28:35;15.30;58.10
8422;DHT22;4248;48.196;10.924;2022-09-09T05:31:07;15.30;57.90
8422;DHT22;4248;48.196;10.924;2022-09-09T05:33:35;15.30;57.10
8422;DHT22;4248;48.196;10.924;2022-09-09T05:36:08;15.30;58.20
8422;DHT22;4248;48.196;10.924;2022-09-09T05:38:37;15.30;58.20
8422;DHT22;4248;48.196;10.924;2022-09-09T05:41:06;15.30;58.40
8422;DHT22;4248;48.196;10.924;2022-09-09T05:43:34;15.30;57.60
8422;DHT22;4248;48.196;10.924;2022-09-09T05:48:36;15.30;58.30
8422;DHT22;4248;48.196;10.924;2022-09-09T05:51:06;15.40;58.30
8422;DHT22;4248;48.196;10.924;2022-09-09T05:53:35;15.50;57.00
8422;DHT22;4248;48.196;10.924;2022-09-09T05:56:07;15.50;58.00
8422;DHT22;4248;48.196;10.924;2022-09-09T05:58:38;15.60;58.10
8422;DHT22;4248;48.196;10.924;2022-09-09T06:03:49;15.60;57.30
8422;DHT22;4248;48.196;10.924;2022-09-09T06:06:18;15.60;58.50
8422;DHT22;4248;48.196;10.924;2022-09-09T06:08:46;15.60;58.60
8422;DHT22;4248;48.196;10.924;2022-09-09T06:11:21;15.60;58.80
8422;DHT22;4248;48.196;10.924;2022-09-09T06:13:50;15.70;57.90
8422;DHT22;4248;48.196;10.924;2022-09-09T06:16:22;15.70;59.00
8422;DHT22;4248;48.196;10.924;2022-09-09T06:18:49;15.80;58.70
8422;DHT22;4248;48.196;10.924;2022-09-09T06:21:18;15.90;58.50
8422;DHT22;4248;48.196;10.924;2022-09-09T06:23:46;16.00;57.80
8422;DHT22;4248;48.196;10.924;2022-09-09T06:28:47;16.10;58.70
8422;DHT22;4248;48.196;10.924;2022-09-09T06:31:16;16.10;58.60
8422;DHT22;4248;48.196;10.924;2022-09-09T06:33:51;16.30;57.50
8422;DHT22;4248;48.196;10.924;2022-09-09T06:36:22;16.30;57.20
8422;DHT22;4248;48.196;10.924;2022-09-09T06:38:50;16.30;58.30
8422;DHT22;4248;48.196;10.924;2022-09-09T06:41:19;16.40;58.00
8422;DHT22;4248;48.196;10.924;2022-09-09T06:43:48;16.70;56.70
8422;DHT22;4248;48.196;10.924;2022-09-09T06:46:21;16.70;57.80
8422;DHT22;4248;48.196;10.924;2022-09-09T06:48:49;16.80;57.90
8422;DHT22;4248;48.196;10.924;2022-09-09T06:51:22;16.90;58.00
8422;DHT22;4248;48.196;10.924;2022-09-09T06:53:52;17.10;56.40
8422;DHT22;4248;48.196;10.924;2022-09-09T06:56:24;17.10;57.30
8422;DHT22;4248;48.196;10.924;2022-09-09T06:58:56;17.10;57.00
8422;DHT22;4248;48.196;10.924;2022-09-09T07:01:26;17.20;56.90
8422;DHT22;4248;48.196;10.924;2022-09-09T07:03:56;17.10;56.00
8422;DHT22;4248;48.196;10.924;2022-09-09T07:06:33;17.10;57.10
8422;DHT22;4248;48.196;10.924;2022-09-09T07:09:06;17.10;57.20
8422;DHT22;4248;48.196;10.924;2022-09-09T07:11:39;17.10;57.20
8422;DHT22;4248;48.196;10.924;2022-09-09T07:14:09;17.10;56.10
8422;DHT22;4248;48.196;10.924;2022-09-09T07:16:41;17.10;57.00
8422;DHT22;4248;48.196;10.924;2022-09-09T07:19:08;17.20;56.80
8422;DHT22;4248;48.196;10.924;2022-09-09T07:21:36;17.30;56.90
8422;DHT22;4248;48.196;10.924;2022-09-09T07:24:04;17.30;55.60
8422;DHT22;4248;48.196;10.924;2022-09-09T07:26:34;17.30;56.60
8422;DHT22;4248;48.196;10.924;2022-09-09T07:29:03;17.30;56.70
8422;DHT22;4248;48.196;10.924;2022-09-09T07:31:34;17.30;56.60
8422;DHT22;4248;48.196;10.924;2022-09-09T07:34:04;17.30;55.70
8422;DHT22;4248;48.196;10.924;2022-09-09T07:36:37;17.30;56.90
8422;DHT22;4248;48.196;10.924;2022-09-09T07:39:09;17.30;56.80
8422;DHT22;4248;48.196;10.924;2022-09-09T07:41:40;17.30;56.80
8422;DHT22;4248;48.196;10.924;2022-09-09T07:44:27;17.40;55.60
8422;DHT22;4248;48.196;10.924;2022-09-09T07:46:59;17.40;56.40
8422;DHT22;4248;48.196;10.924;2022-09-09T07:49:27;17.50;56.10
8422;DHT22;4248;48.196;10.924;2022-09-09T07:51:54;17.60;55.90
8422;DHT22;4248;48.196;10.924;2022-09-09T07:54:22;17.70;54.40
8422;DHT22;4248;48.196;10.924;2022-09-09T07:56:51;17.80;55.40
8422;DHT22;4248;48.196;10.924;2022-09-09T07:59:20;17.90;55.10
8422;DHT22;4248;48.196;10.924;2022-09-09T08:01:52;18.00;55.00
8422;DHT22;4248;48.196;10.924;2022-09-09T08:04:22;18.10;53.70
8422;DHT22;4248;48.196;10.924;2022-09-09T08:06:57;18.20;54.80
8422;DHT22;4248;48.196;10.924;2022-09-09T08:09:26;18.20;54.70
8422;DHT22;4248;48.196;10.924;2022-09-09T08:11:59;18.30;54.40
8422;DHT22;4248;48.196;10.924;2022-09-09T08:14:27;18.50;52.80
8422;DHT22;4248;48.196;10.924;2022-09-09T08:16:57;18.50;53.80
8422;DHT22;4248;48.196;10.924;2022-09-09T08:19:25;18.60;52.40
8422;DHT22;4248;48.196;10.924;2022-09-09T08:21:56;18.70;53.30
8422;DHT22;4248;48.196;10.924;2022-09-09T08:24:23;18.90;52.90
8422;DHT22;4248;48.196;10.924;2022-09-09T08:26:52;19.00;52.70
8422;DHT22;4248;48.196;10.924;2022-09-09T08:29:20;19.20;52.30
8422;DHT22;4248;48.196;10.924;2022-09-09T08:31:52;19.20;52.10
8422;DHT22;4248;48.196;10.924;2022-09-09T08:34:22;19.30;50.70
8422;DHT22;4248;48.196;10.924;2022-09-09T08:36:51;19.30;52.00
8422;DHT22;4248;48.196;10.924;2022-09-09T08:39:20;19.20;52.00
8422;DHT22;4248;48.196;10.924;2022-09-09T08:57:40;19.00;52.50
8422;DHT22;4248;48.196;10.924;2022-09-09T09:00:11;19.10;52.40
8422;DHT22;4248;48.196;10.924;2022-09-09T09:10:51;19.30;51.10
8422;DHT22;4248;48.196;10.924;2022-09-09T09:13:41;19.50;49.90
8422;DHT22;4248;48.196;10.924;2022-09-09T09:19:03;19.50;50.40
8422;DHT22;4248;48.196;10.924;2022-09-09T09:21:44;19.70;50.20
8422;DHT22;4248;48.196;10.924;2022-09-09T09:27:19;19.80;49.50
8422;DHT22;4248;48.196;10.924;2022-09-09T09:29:50;19.80;49.70
8422;DHT22;4248;48.196;10.924;2022-09-09T09:32:20;19.80;49.40
8422;DHT22;4248;48.196;10.924;2022-09-09T09:34:56;19.90;48.00
8422;DHT22;4248;48.196;10.924;2022-09-09T09:37:34;19.90;48.80
8422;DHT22;4248;48.196;10.924;2022-09-09T09:40:16;19.90;48.70
8422;DHT22;4248;48.196;10.924;2022-09-09T09:43:01;19.90;48.50
8422;DHT22;4248;48.196;10.924;2022-09-09T09:45:43;19.90;47.10
8422;DHT22;4248;48.196;10.924;2022-09-09T09:48:15;19.90;48.50
8422;DHT22;4248;48.196;10.924;2022-09-09T09:50:56;19.80;48.40
8422;DHT22;4248;48.196;10.924;2022-09-09T09:53:28;19.80;46.80
8422;DHT22;4248;48.196;10.924;2022-09-09T09:56:04;19.80;47.80
8422;DHT22;4248;48.196;10.924;2022-09-09T10:01:28;19.70;47.50
8422;DHT22;4248;48.196;10.924;2022-09-09T10:04:16;19.70;46.30
8422;DHT22;4248;48.196;10.924;2022-09-09T10:06:45;19.80;47.50
8422;DHT22;4248;48.196;10.924;2022-09-09T10:09:27;19.80;47.40
8422;DHT22;4248;48.196;10.924;2022-09-09T10:23:45;20.30;44.20
8422;DHT22;4248;48.196;10.924;2022-09-09T10:26:23;20.40;45.30
8422;DHT22;4248;48.196;10.924;2022-09-09T10:34:56;20.40;44.70
8422;DHT22;4248;48.196;10.924;2022-09-09T10:37:42;20.50;44.90
8422;DHT22;4248;48.196;10.924;2022-09-09T10:51:46;21.10;42.60
8422;DHT22;4248;48.196;10.924;2022-09-09T11:00:14;20.80;42.70
8422;DHT22;4248;48.196;10.924;2022-09-09T11:02:43;20.80;42.80
8422;DHT22;4248;48.196;10.924;2022-09-09T11:05:27;20.80;41.50
8422;DHT22;4248;48.196;10.924;2022-09-09T11:08:20;20.70;42.60
8422;DHT22;4248;48.196;10.924;2022-09-09T11:19:42;20.20;42.90
8422;DHT22;4248;48.196;10.924;2022-09-09T11:22:31;20.10;43.40
8422;DHT22;4248;48.196;10.924;2022-09-09T11:25:32;20.20;42.20
8422;DHT22;4248;48.196;10.924;2022-09-09T11:36:40;20.40;42.50
8422;DHT22;4248;48.196;10.924;2022-09-09T11:42:21;20.50;42.20
8422;DHT22;4248;48.196;10.924;2022-09-09T11:44:49;20.60;40.70
8422;DHT22;4248;48.196;10.924;2022-09-09T11:47:37;20.70;41.60
8422;DHT22;4248;48.196;10.924;2022-09-09T11:50:29;20.90;41.30
8422;DHT22;4248;48.196;10.924;2022-09-09T11:53:23;21.10;39.30
8422;DHT22;4248;48.196;10.924;2022-09-09T11:56:12;21.10;40.50
8422;DHT22;4248;48.196;10.924;2022-09-09T11:59:03;21.20;40.30
8422;DHT22;4248;48.196;10.924;2022-09-09T12:01:42;21.40;40.00
8422;DHT22;4248;48.196;10.924;2022-09-09T12:04:40;21.90;38.40
8422;DHT22;4248;48.196;10.924;2022-09-09T12:10:52;22.20;38.50
8422;DHT22;4248;48.196;10.924;2022-09-09T12:13:51;22.20;36.60
8422;DHT22;4248;48.196;10.924;2022-09-09T12:16:40;22.20;37.70
8422;DHT22;4248;48.196;10.924;2022-09-09T12:19:27;22.20;37.50
8422;DHT22;4248;48.196;10.924;2022-09-09T12:22:35;22.00;37.60
8422;DHT22;4248;48.196;10.924;2022-09-09T12:25:53;22.20;36.20
8422;DHT22;4248;48.196;10.924;2022-09-09T12:32:37;22.20;37.30
8422;DHT22;4248;48.196;10.924;2022-09-09T12:34:55;22.30;35.70
8422;DHT22;4248;48.196;10.924;2022-09-09T12:43:27;22.40;35.20
8422;DHT22;4248;48.196;10.924;2022-09-09T12:46:32;22.40;36.30
8422;DHT22;4248;48.196;10.924;2022-09-09T12:49:40;22.20;36.10
8422;DHT22;4248;48.196;10.924;2022-09-09T12:52:35;22.00;35.90
8422;DHT22;4248;48.196;10.924;2022-09-09T12:55:34;21.80;35.10
8422;DHT22;4248;48.196;10.924;2022-09-09T12:58:30;21.70;36.90
8422;DHT22;4248;48.196;10.924;2022-09-09T13:01:36;21.80;36.70
8422;DHT22;4248;48.196;10.924;2022-09-09T13:04:35;22.20;35.00
8422;DHT22;4248;48.196;10.924;2022-09-09T13:07:46;22.30;36.20
8422;DHT22;4248;48.196;10.924;2022-09-09T13:10:44;22.70;36.00
8422;DHT22;4248;48.196;10.924;2022-09-09T13:13:43;22.80;34.10
8422;DHT22;4248;48.196;10.924;2022-09-09T13:16:41;22.80;34.80
8422;DHT22;4248;48.196;10.924;2022-09-09T13:19:40;22.80;34.80
8422;DHT22;4248;48.196;10.924;2022-09-09T13:22:47;23.00;34.10
8422;DHT22;4248;48.196;10.924;2022-09-09T13:25:31;23.10;31.70
8422;DHT22;4248;48.196;10.924;2022-09-09T13:28:26;23.10;32.80
8422;DHT22;4248;48.196;10.924;2022-09-09T13:31:36;23.20;32.80
8422;DHT22;4248;48.196;10.924;2022-09-09T13:34:32;23.20;29.90
8422;DHT22;4248;48.196;10.924;2022-09-09T13:37:38;23.10;30.80
8422;DHT22;4248;48.196;10.924;2022-09-09T13:40:29;23.20;29.70
8422;DHT22;4248;48.196;10.924;2022-09-09T13:43:15;23.10;30.80
8422;DHT22;4248;48.196;10.924;2022-09-09T13:49:23;22.80;31.10
8422;DHT22;4248;48.196;10.924;2022-09-09T13:52:13;22.40;31.70
8422;DHT22;4248;48.196;10.924;2022-09-09T13:54:41;22.10;31.00
8422;DHT22;4248;48.196;10.924;2022-09-09T13:57:19;22.20;31.20
8422;DHT22;4248;48.196;10.924;2022-09-09T13:59:46;22.20;32.10
8422;DHT22;4248;48.196;10.924;2022-09-09T14:02:13;22.20;32.10
8422;DHT22;4248;48.196;10.924;2022-09-09T14:04:38;22.10;30.70
8422;DHT22;4248;48.196;10.924;2022-09-09T14:07:12;22.00;32.10
8422;DHT22;4248;48.196;10.924;2022-09-09T14:09:39;22.00;31.90
8422;DHT22;4248;48.196;10.924;2022-09-09T14:12:09;22.00;31.00
8422;DHT22;4248;48.196;10.924;2022-09-09T14:17:04;21.90;31.00
8422;DHT22;4248;48.196;10.924;2022-09-09T14:19:38;22.30;31.20
8422;DHT22;4248;48.196;10.924;2022-09-09T14:24:34;22.80;31.10
8422;DHT22;4248;48.196;10.924;2022-09-09T14:27:00;22.80;31.00
8422;DHT22;4248;48.196;10.924;2022-09-09T14:29:26;22.80;32.40
8422;DHT22;4248;48.196;10.924;2022-09-09T14:31:51;22.80;32.20
8422;DHT22;4248;48.196;10.924;2022-09-09T14:34:17;22.70;31.50
8422;DHT22;4248;48.196;10.924;2022-09-09T14:36:43;22.70;31.70
8422;DHT22;4248;48.196;10.924;2022-09-09T14:39:10;22.60;33.00
8422;DHT22;4248;48.196;10.924;2022-09-09T14:41:36;22.40;33.00
8422;DHT22;4248;48.196;10.924;2022-09-09T14:44:02;22.20;32.20
8422;DHT22;4248;48.196;10.924;2022-09-09T14:46:27;22.00;32.70
8422;DHT22;4248;48.196;10.924;2022-09-09T14:48:53;22.00;32.70
8422;DHT22;4248;48.196;10.924;2022-09-09T14:51:21;22.00;33.80
8422;DHT22;4248;48.196;10.924;2022-09-09T14:53:50;22.00;31.80
8422;DHT22;4248;48.196;10.924;2022-09-09T14:56:18;21.90;33.00
8422;DHT22;4248;48.196;10.924;2022-09-09T15:01:16;21.70;31.60
8422;DHT22;4248;48.196;10.924;2022-09-09T15:03:48;21.70;31.30
8422;DHT22;4248;48.196;10.924;2022-09-09T15:06:14;21.70;31.20
8422;DHT22;4248;48.196;10.924;2022-09-09T15:08:41;21.90;30.80
8422;DHT22;4248;48.196;10.924;2022-09-09T15:11:12;21.90;30.40
8422;DHT22;4248;48.196;10.924;2022-09-09T15:13:42;21.90;30.40
8422;DHT22;4248;48.196;10.924;2022-09-09T15:16:19;22.00;30.50
8422;DHT22;4248;48.196;10.924;2022-09-09T15:18:51;22.00;30.50
8422;DHT22;4248;48.196;10.924;2022-09-09T15:21:20;22.00;30.60
8422;DHT22;4248;48.196;10.924;2022-09-09T15:23:49;22.00;30.20
8422;DHT22;4248;48.196;10.924;2022-09-09T15:26:16;22.00;31.40
8422;DHT22;4248;48.196;10.924;2022-09-09T15:28:44;22.10;30.30
8422;DHT22;4248;48.196;10.924;2022-09-09T15:31:14;22.20;31.10
8422;DHT22;4248;48.196;10.924;2022-09-09T15:33:40;22.30;29.30
8422;DHT22;4248;48.196;10.924;2022-09-09T15:38:43;22.30;28.70
8422;DHT22;4248;48.196;10.924;2022-09-09T15:41:09;22.40;29.90
8422;DHT22;4248;48.196;10.924;2022-09-09T15:43:35;22.10;29.50
8422;DHT22;4248;48.196;10.924;2022-09-09T15:46:22;22.10;31.20
8422;DHT22;4248;48.196;10.924;2022-09-09T15:48:56;21.80;30.30
8422;DHT22;4248;48.196;10.924;2022-09-09T15:51:23;21.50;31.00
8422;DHT22;4248;48.196;10.924;2022-09-09T15:53:57;21.30;30.00
8422;DHT22;4248;48.196;10.924;2022-09-09T15:56:25;21.30;31.20
8422;DHT22;4248;48.196;10.924;2022-09-09T15:58:53;21.30;31.20
8422;DHT22;4248;48.196;10.924;2022-09-09T16:01:19;21.40;31.00
8422;DHT22;4248;48.196;10.924;2022-09-09T16:03:46;21.30;30.00
8422;DHT22;4248;48.196;10.924;2022-09-09T16:06:17;21.20;31.00
8422;DHT22;4248;48.196;10.924;2022-09-09T16:08:45;20.80;30.60
8422;DHT22;4248;48.196;10.924;2022-09-09T16:11:18;20.60;31.00
8422;DHT22;4248;48.196;10.924;2022-09-09T16:13:49;20.50;31.10
8422;DHT22;4248;48.196;10.924;2022-09-09T16:16:16;20.50;33.50
8422;DHT22;4248;48.196;10.924;2022-09-09T16:18:44;20.30;32.50
8422;DHT22;4248;48.196;10.924;2022-09-09T16:21:30;20.10;33.00
8422;DHT22;4248;48.196;10.924;2022-09-09T16:23:59;20.00;32.60
8422;DHT22;4248;48.196;10.924;2022-09-09T16:26:25;19.90;33.50
8422;DHT22;4248;48.196;10.924;2022-09-09T16:28:53;19.90;33.90
8422;DHT22;4248;48.196;10.924;2022-09-09T16:31:22;19.80;33.80
8422;DHT22;4248;48.196;10.924;2022-09-09T16:33:49;19.80;32.80
8422;DHT22;4248;48.196;10.924;2022-09-09T16:36:24;19.80;33.90
8422;DHT22;4248;48.196;10.924;2022-09-09T16:38:54;20.00;34.00
8422;DHT22;4248;48.196;10.924;2022-09-09T16:41:21;20.10;34.10
8422;DHT22;4248;48.196;10.924;2022-09-09T16:43:52;20.10;33.10
8422;DHT22;4248;48.196;10.924;2022-09-09T16:46:19;20.10;34.20
8422;DHT22;4248;48.196;10.924;2022-09-09T16:48:46;20.00;34.10
8422;DHT22;4248;48.196;10.924;2022-09-09T16:51:16;19.90;35.20
8422;DHT22;4248;48.196;10.924;2022-09-09T16:53:42;19.70;33.60
8422;DHT22;4248;48.196;10.924;2022-09-09T16:56:19;19.70;34.70
8422;DHT22;4248;48.196;10.924;2022-09-09T16:58:50;19.50;35.00
8422;DHT22;4248;48.196;10.924;2022-09-09T17:01:17;19.30;35.30
8422;DHT22;4248;48.196;10.924;2022-09-09T17:03:42;19.10;35.00
8422;DHT22;4248;48.196;10.924;2022-09-09T17:06:10;19.00;36.20
8422;DHT22;4248;48.196;10.924;2022-09-09T17:08:37;18.90;36.60
8422;DHT22;4248;48.196;10.924;2022-09-09T17:11:11;18.70;36.90
8422;DHT22;4248;48.196;10.924;2022-09-09T17:13:40;18.40;36.50
8422;DHT22;4248;48.196;10.924;2022-09-09T17:16:06;18.40;37.60
8422;DHT22;4248;48.196;10.924;2022-09-09T17:18:33;18.20;39.20
8422;DHT22;4248;48.196;10.924;2022-09-09T17:21:03;18.10;38.40
8422;DHT22;4248;48.196;10.924;2022-09-09T17:23:29;17.80;38.10
8422;DHT22;4248;48.196;10.924;2022-09-09T17:25:57;17.80;39.10
8422;DHT22;4248;48.196;10.924;2022-09-09T17:28:23;17.70;39.40
8422;DHT22;4248;48.196;10.924;2022-09-09T17:30:53;17.60;39.80
8422;DHT22;4248;48.196;10.924;2022-09-09T17:33:19;17.40;39.30
8422;DHT22;4248;48.196;10.924;2022-09-09T17:35:45;17.40;40.40
8422;DHT22;4248;48.196;10.924;2022-09-09T17:38:11;17.30;40.40
8422;DHT22;4248;48.196;10.924;2022-09-09T17:40:37;17.30;40.60
8422;DHT22;4248;48.196;10.924;2022-09-09T17:43:03;17.20;40.90
8422;DHT22;4248;48.196;10.924;2022-09-09T17:45:30;17.10;40.30
8422;DHT22;4248;48.196;10.924;2022-09-09T17:47:55;17.00;41.50
8422;DHT22;4248;48.196;10.924;2022-09-09T17:50:22;16.90;41.80
8422;DHT22;4248;48.196;10.924;2022-09-09T17:52:48;16.80;42.00
8422;DHT22;4248;48.196;10.924;2022-09-09T17:55:14;16.80;41.70
8422;DHT22;4248;48.196;10.924;2022-09-09T17:57:41;16.70;42.50
8422;DHT22;4248;48.196;10.924;2022-09-09T18:00:07;16.70;42.60
8422;DHT22;4248;48.196;10.924;2022-09-09T18:02:34;16.70;42.70
8422;DHT22;4248;48.196;10.924;2022-09-09T18:05:00;16.70;42.00
8422;DHT22;4248;48.196;10.924;2022-09-09T18:07:26;16.70;42.70
8422;DHT22;4248;48.196;10.924;2022-09-09T18:09:52;16.70;42.60
8422;DHT22;4248;48.196;10.924;2022-09-09T18:12:18;16.80;42.50
8422;DHT22;4248;48.196;10.924;2022-09-09T18:14:44;16.90;41.20
8422;DHT22;4248;48.196;10.924;2022-09-09T18:17:09;17.00;42.00
8422;DHT22;4248;48.196;10.924;2022-09-09T18:19:35;16.90;42.10
8422;DHT22;4248;48.196;10.924;2022-09-09T18:22:04;16.90;43.50
8422;DHT22;4248;48.196;10.924;2022-09-09T18:24:30;16.90;42.30
8422;DHT22;4248;48.196;10.924;2022-09-09T18:26:56;16.80;43.20
8422;DHT22;4248;48.196;10.924;2022-09-09T18:29:23;16.80;42.40
8422;DHT22;4248;48.196;10.924;2022-09-09T18:31:51;16.60;41.60
8422;DHT22;4248;48.196;10.924;2022-09-09T18:34:19;16.40;40.90
8422;DHT22;4248;48.196;10.924;2022-09-09T18:36:48;16.40;42.00
8422;DHT22;4248;48.196;10.924;2022-09-09T18:39:18;16.40;41.90
8422;DHT22;4248;48.196;10.924;2022-09-09T18:41:47;16.30;42.10
8422;DHT22;4248;48.196;10.924;2022-09-09T18:44:16;16.20;41.30
8422;DHT22;4248;48.196;10.924;2022-09-09T18:46:43;16.10;42.30
8422;DHT22;4248;48.196;10.924;2022-09-09T18:49:09;16.00;42.70
8422;DHT22;4248;48.196;10.924;2022-09-09T18:51:40;15.80;43.20
8422;DHT22;4248;48.196;10.924;2022-09-09T18:54:11;15.60;42.50
8422;DHT22;4248;48.196;10.924;2022-09-09T18:56:38;15.50;43.50
8422;DHT22;4248;48.196;10.924;2022-09-09T18:59:05;15.40;43.50
8422;DHT22;4248;48.196;10.924;2022-09-09T19:01:31;15.50;43.60
8422;DHT22;4248;48.196;10.924;2022-09-09T19:04:00;15.60;42.50
8422;DHT22;4248;48.196;10.924;2022-09-09T19:06:29;15.50;42.40
8422;DHT22;4248;48.196;10.924;2022-09-09T19:08:55;15.50;43.50
8422;DHT22;4248;48.196;10.924;2022-09-09T19:11:24;15.50;42.40
8422;DHT22;4248;48.196;10.924;2022-09-09T19:13:56;15.40;43.10
8422;DHT22;4248;48.196;10.924;2022-09-09T19:16:24;15.40;44.20
8422;DHT22;4248;48.196;10.924;2022-09-09T19:18:50;15.20;44.60